MEL weather

Melbourne International Airport
Melbourne, Victoria, Australia

Public forecast

Using degrees Celsius for public forecast. Weather courtesy of forecast.io.

METAR (pilot weather report)

Retrieved 2018/01/21 16:30 UTC (14 minutes ago):

YMML 211630Z 00000KT 6000 BKN006 19/19 Q1007 NOSIG

TAF (pilot weather forecast)

Retrieved 2018/01/21 12:00 UTC (5 hours ago):

TAF YMML 211129Z 2112/2218 16008KT 9999 -SHRA SCT100 FM211600 20008KT 8000 HZ BKN005 FM212200 20006KT 9999 BKN010 BECMG 2123/2124 20010KT 9999 FEW015 FM220300 18015KT 9999 FEW025 FM220900 18010KT 9999 BKN020